createdAt,value
2019-05-11T00:01:41.395Z,16.27
2019-05-11T00:04:08.874Z,16.13
2019-05-11T00:06:36.464Z,16.08
2019-05-11T00:09:04.097Z,16.04
2019-05-11T00:11:31.737Z,16.05
2019-05-11T00:13:59.248Z,16.01
2019-05-11T00:16:26.753Z,15.97
2019-05-11T00:18:54.219Z,15.98
2019-05-11T00:21:21.727Z,15.93
2019-05-11T00:23:49.204Z,15.89
2019-05-11T00:26:16.663Z,15.88
2019-05-11T00:28:44.135Z,15.88
2019-05-11T00:31:12.552Z,15.86
2019-05-11T00:33:39.994Z,15.87
2019-05-11T00:36:07.544Z,15.85
2019-05-11T00:38:35.010Z,15.79
2019-05-11T00:41:02.474Z,15.72
2019-05-11T00:43:29.912Z,15.69
2019-05-11T00:45:57.380Z,15.70
2019-05-11T00:48:24.941Z,15.69
2019-05-11T00:50:53.110Z,15.65
2019-05-11T00:53:20.559Z,15.60
2019-05-11T00:55:48.000Z,15.60
2019-05-11T00:58:15.544Z,15.63
2019-05-11T01:00:43.021Z,15.61
2019-05-11T01:03:10.581Z,15.63
2019-05-11T01:05:38.079Z,15.67
2019-05-11T01:08:05.522Z,15.70
2019-05-11T01:10:41.568Z,15.72
2019-05-11T01:13:00.539Z,15.70
2019-05-11T01:15:30.212Z,15.70
2019-05-11T01:17:57.728Z,15.67
2019-05-11T01:20:25.298Z,15.63
2019-05-11T01:22:52.786Z,15.63
2019-05-11T01:25:20.347Z,15.63
2019-05-11T01:27:47.889Z,15.61
2019-05-11T01:30:15.389Z,15.56
2019-05-11T01:32:42.830Z,15.50
2019-05-11T01:35:10.276Z,15.47
2019-05-11T01:37:37.781Z,15.44
2019-05-11T01:40:05.252Z,15.42
2019-05-11T01:42:32.855Z,15.43
2019-05-11T01:45:00.343Z,15.40
2019-05-11T01:47:27.800Z,15.42
2019-05-11T01:49:55.249Z,15.43
2019-05-11T01:52:22.714Z,15.45
2019-05-11T01:54:50.188Z,15.46
2019-05-11T01:57:17.734Z,15.48
2019-05-11T01:59:45.399Z,15.58
2019-05-11T02:02:12.931Z,15.59
2019-05-11T02:04:40.463Z,15.60
2019-05-11T02:07:07.972Z,15.64
2019-05-11T02:09:35.425Z,15.67
2019-05-11T02:12:02.957Z,15.70
2019-05-11T02:14:30.479Z,15.71
2019-05-11T02:16:58.041Z,15.71
2019-05-11T02:19:25.523Z,15.75
2019-05-11T02:21:52.989Z,15.75
2019-05-11T02:24:20.448Z,15.73
2019-05-11T02:26:47.956Z,15.75
2019-05-11T02:29:15.396Z,15.70
2019-05-11T02:31:42.850Z,15.68
2019-05-11T02:34:10.308Z,15.66
2019-05-11T02:36:37.833Z,15.63
2019-05-11T02:39:05.309Z,15.63
2019-05-11T02:41:36.878Z,15.63
2019-05-11T02:44:00.451Z,15.64
2019-05-11T02:46:27.934Z,15.65
2019-05-11T02:48:55.406Z,15.65
2019-05-11T02:51:23.128Z,15.63
2019-05-11T02:53:50.772Z,15.63
2019-05-11T02:56:18.272Z,15.65
2019-05-11T02:58:45.738Z,15.63
2019-05-11T03:01:13.227Z,15.63
2019-05-11T03:03:40.717Z,15.62
2019-05-11T03:06:08.219Z,15.66
2019-05-11T03:08:35.766Z,15.65
2019-05-11T03:11:03.232Z,15.66
2019-05-11T03:13:30.697Z,15.68
2019-05-11T03:15:58.206Z,15.70
2019-05-11T03:18:25.870Z,15.72
2019-05-11T03:20:53.387Z,15.75
2019-05-11T03:23:20.991Z,15.78
2019-05-11T03:25:48.465Z,15.82
2019-05-11T03:28:15.941Z,15.82
2019-05-11T03:30:43.497Z,15.84
2019-05-11T03:33:10.954Z,15.84
2019-05-11T03:35:38.452Z,15.85
2019-05-11T03:38:05.910Z,15.85
2019-05-11T03:40:33.499Z,15.85
2019-05-11T03:43:01.881Z,15.90
2019-05-11T03:45:29.375Z,15.91
2019-05-11T03:47:56.834Z,15.92
2019-05-11T03:50:24.284Z,15.94
2019-05-11T03:52:51.781Z,15.91
2019-05-11T03:55:19.243Z,15.92
2019-05-11T03:57:46.735Z,15.94
2019-05-11T04:00:14.271Z,15.97
2019-05-11T04:02:41.728Z,16.01
2019-05-11T04:05:09.177Z,16.08
2019-05-11T04:07:36.626Z,16.14
2019-05-11T04:10:04.837Z,16.16
2019-05-11T04:12:35.272Z,16.21
2019-05-11T04:14:59.879Z,16.26
2019-05-11T04:17:27.349Z,16.29
2019-05-11T04:19:54.805Z,16.28
2019-05-11T04:22:22.253Z,16.30
2019-05-11T04:24:49.719Z,16.30
2019-05-11T04:27:19.643Z,16.33
2019-05-11T04:29:44.671Z,16.33
2019-05-11T04:32:12.159Z,16.28
2019-05-11T04:34:39.618Z,16.34
2019-05-11T04:37:07.193Z,16.35
2019-05-11T04:39:34.633Z,16.36
2019-05-11T04:42:02.105Z,16.38
2019-05-11T04:44:29.579Z,16.34
2019-05-11T04:46:57.061Z,16.29
2019-05-11T04:49:24.543Z,16.25
2019-05-11T04:51:52.021Z,16.26
2019-05-11T04:54:19.491Z,16.23
2019-05-11T04:56:46.954Z,16.25
2019-05-11T04:59:14.443Z,16.17
2019-05-11T05:01:41.920Z,16.14
2019-05-11T05:04:14.433Z,16.18
2019-05-11T05:06:38.947Z,16.23
2019-05-11T05:09:05.144Z,16.26
2019-05-11T05:11:36.640Z,16.29
2019-05-11T05:14:01.866Z,16.29
2019-05-11T05:16:26.951Z,16.30
2019-05-11T05:18:54.559Z,16.35
2019-05-11T05:21:22.007Z,16.38
2019-05-11T05:23:49.449Z,16.40
2019-05-11T05:26:16.897Z,16.42
2019-05-11T05:28:45.886Z,16.40
2019-05-11T05:31:11.826Z,16.45
2019-05-11T05:33:39.268Z,16.49
2019-05-11T05:36:06.733Z,16.48
2019-05-11T05:38:34.180Z,16.44
2019-05-11T05:41:01.757Z,16.41
2019-05-11T05:43:29.252Z,16.34
2019-05-11T05:45:56.792Z,16.28
2019-05-11T05:48:24.243Z,16.26
2019-05-11T05:50:51.815Z,16.28
2019-05-11T05:53:19.308Z,16.37
2019-05-11T05:55:46.762Z,16.40
2019-05-11T05:58:14.248Z,16.45
2019-05-11T06:00:41.707Z,16.49
2019-05-11T06:03:09.201Z,16.52
2019-05-11T06:05:36.630Z,16.54
2019-05-11T06:08:04.137Z,16.58
2019-05-11T06:10:31.595Z,16.61
2019-05-11T06:12:59.073Z,16.62
2019-05-11T06:15:27.212Z,16.66
2019-05-11T06:17:54.691Z,16.63
2019-05-11T06:20:22.228Z,16.67
2019-05-11T06:22:50.297Z,16.68
2019-05-11T06:25:17.958Z,16.74
2019-05-11T06:27:45.403Z,16.81
2019-05-11T06:30:13.000Z,16.83
2019-05-11T06:32:40.447Z,16.85
2019-05-11T06:35:07.938Z,16.80
2019-05-11T06:37:35.466Z,16.82
2019-05-11T06:40:02.977Z,16.80
2019-05-11T06:42:30.853Z,16.84
2019-05-11T06:44:58.309Z,16.83
2019-05-11T06:47:25.764Z,16.86
2019-05-11T06:49:53.260Z,16.93
2019-05-11T06:52:20.889Z,16.93
2019-05-11T06:54:48.367Z,16.96
2019-05-11T06:57:15.829Z,16.88
2019-05-11T06:59:43.334Z,16.88
2019-05-11T07:02:10.932Z,16.94
2019-05-11T07:04:38.452Z,16.95
2019-05-11T07:07:06.023Z,16.88
2019-05-11T07:09:33.482Z,16.91
2019-05-11T07:12:01.083Z,16.85
2019-05-11T07:14:28.539Z,16.87
2019-05-11T07:16:56.024Z,16.64
2019-05-11T07:19:23.596Z,16.45
2019-05-11T07:21:51.043Z,16.52
2019-05-11T07:24:18.548Z,16.56
2019-05-11T07:26:46.003Z,16.78
2019-05-11T07:29:13.554Z,16.99
2019-05-11T07:31:41.017Z,17.03
2019-05-11T07:34:08.463Z,16.99
2019-05-11T07:36:35.923Z,16.91
2019-05-11T07:39:03.393Z,17.01
2019-05-11T07:41:30.890Z,16.98
2019-05-11T07:43:58.969Z,16.81
2019-05-11T07:46:25.895Z,16.89
2019-05-11T07:48:53.433Z,16.96
2019-05-11T07:51:20.874Z,16.99
2019-05-11T07:53:48.743Z,16.95
2019-05-11T07:56:15.880Z,16.93
2019-05-11T07:58:43.365Z,16.94
2019-05-11T08:01:10.859Z,16.85
2019-05-11T08:03:39.011Z,16.71
2019-05-11T08:06:05.814Z,16.67
2019-05-11T08:08:33.258Z,16.63
2019-05-11T08:11:00.720Z,16.39
2019-05-11T08:13:28.402Z,15.71
2019-05-11T08:15:57.766Z,15.08
2019-05-11T08:18:23.361Z,14.69
2019-05-11T08:20:50.912Z,14.46
2019-05-11T08:23:18.522Z,14.21
2019-05-11T08:25:48.450Z,13.88
2019-05-11T08:28:13.503Z,13.68
2019-05-11T08:30:40.994Z,13.43
2019-05-11T08:33:08.692Z,13.29
2019-05-11T08:35:36.022Z,13.10
2019-05-11T08:38:03.462Z,12.98
2019-05-11T08:40:30.990Z,12.92
2019-05-11T08:42:58.503Z,13.01
2019-05-11T08:45:28.010Z,13.18
2019-05-11T08:47:53.472Z,13.35
2019-05-11T08:50:20.942Z,13.48
2019-05-11T08:52:48.112Z,13.47
2019-05-11T08:55:15.063Z,13.58
2019-05-11T08:57:42.557Z,13.48
2019-05-11T09:00:12.538Z,13.54
2019-05-11T09:02:40.011Z,13.62
2019-05-11T09:05:08.166Z,13.67
2019-05-11T09:07:34.979Z,13.70
2019-05-11T09:10:02.448Z,13.71
2019-05-11T09:12:29.927Z,13.53
2019-05-11T09:14:58.148Z,13.55
2019-05-11T09:17:25.766Z,13.58
2019-05-11T09:19:53.217Z,13.58
2019-05-11T09:22:20.741Z,13.62
2019-05-11T09:24:48.190Z,13.54
2019-05-11T09:27:18.193Z,13.55
2019-05-11T09:29:43.479Z,13.48
2019-05-11T09:32:11.018Z,13.25
2019-05-11T09:34:38.543Z,13.04
2019-05-11T09:37:07.909Z,12.93
2019-05-11T09:39:33.576Z,12.99
2019-05-11T09:42:01.153Z,13.07
2019-05-11T09:44:28.995Z,13.05
2019-05-11T09:46:59.934Z,13.15
2019-05-11T09:49:23.732Z,13.27
2019-05-11T09:51:51.242Z,13.30
2019-05-11T09:54:18.878Z,13.45
2019-05-11T09:56:48.478Z,13.52
2019-05-11T09:59:14.048Z,13.63
2019-05-11T10:01:41.492Z,13.64
2019-05-11T10:04:09.176Z,14.25
2019-05-11T10:06:38.621Z,14.71
2019-05-11T10:09:03.971Z,14.98
2019-05-11T10:11:31.649Z,15.28
2019-05-11T10:13:59.292Z,15.95
2019-05-11T10:16:28.052Z,16.35
2019-05-11T10:18:54.262Z,16.63
2019-05-11T10:21:21.810Z,16.72
2019-05-11T10:23:49.284Z,16.74
2019-05-11T10:26:18.766Z,16.96
2019-05-11T10:28:44.919Z,17.10
2019-05-11T10:31:12.376Z,17.21
2019-05-11T10:33:39.891Z,17.55
2019-05-11T10:36:08.194Z,17.82
2019-05-11T10:38:34.853Z,17.86
2019-05-11T10:41:02.546Z,17.89
2019-05-11T10:43:30.235Z,18.23
2019-05-11T10:45:58.762Z,18.45
2019-05-11T10:48:25.386Z,18.62
2019-05-11T10:50:52.839Z,18.86
2019-05-11T10:53:20.431Z,18.89
2019-05-11T10:55:48.077Z,19.15
2019-05-11T10:58:18.170Z,19.62
2019-05-11T11:00:43.018Z,20.03
2019-05-11T11:03:10.499Z,19.62
2019-05-11T11:05:38.595Z,19.70
2019-05-11T11:08:08.099Z,19.76
2019-05-11T11:10:33.228Z,19.53
2019-05-11T11:13:00.679Z,19.67
2019-05-11T11:15:28.824Z,19.76
2019-05-11T11:17:57.768Z,20.03
2019-05-11T11:20:23.482Z,19.99
2019-05-11T11:22:50.927Z,20.03
2019-05-11T11:25:18.386Z,19.89
2019-05-11T11:27:45.849Z,19.95
2019-05-11T11:30:13.351Z,20.16
2019-05-11T11:32:40.803Z,20.58
2019-05-11T11:35:08.628Z,20.80
2019-05-11T11:37:35.761Z,20.96
2019-05-11T11:40:03.208Z,21.31
2019-05-11T11:42:30.774Z,21.50
2019-05-11T11:44:58.735Z,21.41
2019-05-11T11:47:25.363Z,21.44
2019-05-11T11:49:52.862Z,21.74
2019-05-11T11:52:20.442Z,21.79
2019-05-11T11:54:47.909Z,22.15
2019-05-11T11:57:14.934Z,21.83
2019-05-11T11:59:42.436Z,21.67
2019-05-11T12:02:10.053Z,21.45
2019-05-11T12:04:38.841Z,21.10
2019-05-11T12:07:05.028Z,20.49
2019-05-11T12:09:32.621Z,19.31
2019-05-11T12:12:00.070Z,18.46
2019-05-11T12:14:28.304Z,17.98
2019-05-11T12:17:04.932Z,17.62
2019-05-11T12:19:23.298Z,17.38
2019-05-11T12:21:50.826Z,17.12
2019-05-11T12:24:18.844Z,16.86
2019-05-11T12:26:48.102Z,16.61
2019-05-11T12:29:13.400Z,16.17
2019-05-11T12:31:40.993Z,15.94
2019-05-11T12:34:08.862Z,15.85
2019-05-11T12:36:35.970Z,15.72
2019-05-11T12:39:03.444Z,15.53
2019-05-11T12:41:30.925Z,15.48
2019-05-11T12:43:58.396Z,15.54
2019-05-11T12:46:27.660Z,15.78
2019-05-11T12:48:56.559Z,15.96
2019-05-11T12:51:20.961Z,16.51
2019-05-11T12:53:49.949Z,17.41
2019-05-11T12:56:18.967Z,17.70
2019-05-11T12:58:44.923Z,17.48
2019-05-11T13:01:12.388Z,17.35
2019-05-11T13:03:39.844Z,17.27
2019-05-11T13:06:08.195Z,17.04
2019-05-11T13:08:34.826Z,17.01
2019-05-11T13:11:02.275Z,17.10
2019-05-11T13:13:29.731Z,17.97
2019-05-11T13:15:58.496Z,18.54
2019-05-11T13:18:24.716Z,18.68
2019-05-11T13:20:52.182Z,19.06
2019-05-11T13:23:19.627Z,19.31
2019-05-11T13:25:48.002Z,19.43
2019-05-11T13:28:14.593Z,19.46
2019-05-11T13:30:42.069Z,19.41
2019-05-11T13:33:09.685Z,19.51
2019-05-11T13:35:37.641Z,20.03
2019-05-11T13:38:04.747Z,20.15
2019-05-11T13:40:32.214Z,20.40
2019-05-11T13:43:00.556Z,20.71
2019-05-11T13:45:28.338Z,21.28
2019-05-11T13:47:58.857Z,20.55
2019-05-11T13:50:23.054Z,20.42
2019-05-11T13:52:50.507Z,20.72
2019-05-11T13:55:18.409Z,20.61
2019-05-11T13:57:45.583Z,20.20
2019-05-11T14:00:13.099Z,19.79
2019-05-11T14:02:40.724Z,19.38
2019-05-11T14:05:08.740Z,18.81
2019-05-11T14:07:37.918Z,18.20
2019-05-11T14:10:03.312Z,18.05
2019-05-11T14:12:30.754Z,18.09
2019-05-11T14:14:58.292Z,18.07
2019-05-11T14:17:28.652Z,18.10
2019-05-11T14:19:53.388Z,18.03
2019-05-11T14:22:20.872Z,17.84
2019-05-11T14:24:48.545Z,17.43
2019-05-11T14:27:17.797Z,17.17
2019-05-11T14:29:43.864Z,17.12
2019-05-11T14:32:11.341Z,16.83
2019-05-11T14:34:38.889Z,16.46
2019-05-11T14:37:08.830Z,16.14
2019-05-11T14:39:34.992Z,15.65
2019-05-11T14:42:02.623Z,15.33
2019-05-11T14:44:30.199Z,15.17
2019-05-11T14:46:59.290Z,15.26
2019-05-11T14:49:27.488Z,15.41
2019-05-11T14:51:52.685Z,15.50
2019-05-11T14:54:20.239Z,15.48
2019-05-11T14:56:48.144Z,16.01
2019-05-11T14:59:15.262Z,16.35
2019-05-11T15:01:42.734Z,16.53
2019-05-11T15:04:10.201Z,16.06
2019-05-11T15:06:38.583Z,15.92
2019-05-11T15:09:07.618Z,16.10
2019-05-11T15:11:32.728Z,16.00
2019-05-11T15:14:00.225Z,15.90
2019-05-11T15:16:28.582Z,15.69
2019-05-11T15:18:56.044Z,15.14
2019-05-11T15:21:23.525Z,14.67
2019-05-11T15:23:50.999Z,14.17
2019-05-11T15:26:18.900Z,13.90
2019-05-11T15:28:48.594Z,13.58
2019-05-11T15:31:14.646Z,13.39
2019-05-11T15:33:42.087Z,13.30
2019-05-11T15:36:09.679Z,13.30
2019-05-11T15:38:37.881Z,13.23
2019-05-11T15:41:04.698Z,13.33
2019-05-11T15:43:32.160Z,13.28
2019-05-11T15:45:59.670Z,13.22
2019-05-11T15:48:27.427Z,13.31
2019-05-11T15:50:54.959Z,13.42
2019-05-11T15:53:22.438Z,13.53
2019-05-11T15:55:49.943Z,13.53
2019-05-11T15:58:21.443Z,13.47
2019-05-11T16:00:44.939Z,13.48
2019-05-11T16:03:12.419Z,13.42
2019-05-11T16:05:41.118Z,13.29
2019-05-11T16:08:08.593Z,13.33
2019-05-11T16:10:38.241Z,13.49
2019-05-11T16:13:03.609Z,13.52
2019-05-11T16:15:31.065Z,13.69
2019-05-11T16:17:59.631Z,13.79
2019-05-11T16:20:28.593Z,13.83
2019-05-11T16:22:54.704Z,13.97
2019-05-11T16:25:22.331Z,13.92
2019-05-11T16:27:49.807Z,13.81
2019-05-11T16:30:20.825Z,13.89
2019-05-11T16:32:44.764Z,13.93
2019-05-11T16:35:12.256Z,13.85
2019-05-11T16:37:39.686Z,13.62
2019-05-11T16:40:07.135Z,13.43
2019-05-11T16:42:34.755Z,13.56
2019-05-11T16:45:02.254Z,13.35
2019-05-11T16:47:29.706Z,13.12
2019-05-11T16:49:57.993Z,12.83
2019-05-11T16:52:24.863Z,13.02
2019-05-11T16:54:52.336Z,13.31
2019-05-11T16:57:19.804Z,13.31
2019-05-11T16:59:48.365Z,13.15
2019-05-11T17:02:14.803Z,12.94
2019-05-11T17:04:42.266Z,12.84
2019-05-11T17:07:09.762Z,12.76
2019-05-11T17:09:37.857Z,12.66
2019-05-11T17:12:04.697Z,12.67
2019-05-11T17:14:32.174Z,12.86
2019-05-11T17:16:59.624Z,13.00
2019-05-11T17:19:42.177Z,12.92
2019-05-11T17:21:53.762Z,12.98
2019-05-11T17:24:20.735Z,12.92
2019-05-11T17:26:47.967Z,13.04
2019-05-11T17:29:15.021Z,12.93
2019-05-11T17:31:42.062Z,12.77
2019-05-11T17:34:09.548Z,12.72
2019-05-11T17:36:37.009Z,12.87
2019-05-11T17:39:04.493Z,13.16
2019-05-11T17:41:31.943Z,13.36
2019-05-11T17:43:59.444Z,13.45
2019-05-11T17:46:27.909Z,13.55
2019-05-11T17:48:54.561Z,13.64
2019-05-11T17:51:25.024Z,13.66
2019-05-11T17:53:49.499Z,13.61
2019-05-11T17:56:16.950Z,13.55
2019-05-11T17:58:44.464Z,13.55
2019-05-11T18:01:11.993Z,13.56
2019-05-11T18:03:39.503Z,13.58
2019-05-11T18:06:08.555Z,13.61
2019-05-11T18:08:34.552Z,13.55
2019-05-11T18:11:02.003Z,13.41
2019-05-11T18:13:29.504Z,13.36
2019-05-11T18:15:57.788Z,13.38
2019-05-11T18:18:24.450Z,13.46
2019-05-11T18:20:51.926Z,13.50
2019-05-11T18:23:19.395Z,13.52
2019-05-11T18:25:47.976Z,13.51
2019-05-11T18:28:14.489Z,13.44
2019-05-11T18:30:41.963Z,13.44
2019-05-11T18:33:09.526Z,13.43
2019-05-11T18:35:37.011Z,13.43
2019-05-11T18:38:04.563Z,13.42
2019-05-11T18:40:32.056Z,13.48
2019-05-11T18:42:59.518Z,13.48
2019-05-11T18:45:28.735Z,13.46
2019-05-11T18:47:54.499Z,13.36
2019-05-11T18:50:30.587Z,13.34
2019-05-11T18:52:49.692Z,13.36
2019-05-11T18:55:18.887Z,13.34
2019-05-11T18:57:44.651Z,13.29
2019-05-11T19:00:12.128Z,13.27
2019-05-11T19:02:39.630Z,13.26
2019-05-11T19:05:07.156Z,13.21
2019-05-11T19:07:34.667Z,13.19
2019-05-11T19:10:02.122Z,13.19
2019-05-11T19:12:29.583Z,13.22
2019-05-11T19:14:58.707Z,13.25
2019-05-11T19:17:24.544Z,13.18
2019-05-11T19:19:52.055Z,13.05
2019-05-11T19:22:19.521Z,12.98
2019-05-11T19:24:47.585Z,12.96
2019-05-11T19:27:14.481Z,12.97
2019-05-11T19:29:41.955Z,13.00
2019-05-11T19:32:11.178Z,12.96
2019-05-11T19:34:38.859Z,12.96
2019-05-11T19:37:04.504Z,12.89
2019-05-11T19:39:31.961Z,12.91
2019-05-11T19:41:59.414Z,12.96
2019-05-11T19:44:27.976Z,13.00
2019-05-11T19:46:54.416Z,13.07
2019-05-11T19:49:21.922Z,13.13
2019-05-11T19:51:49.382Z,13.16
2019-05-11T19:54:18.613Z,13.17
2019-05-11T19:56:44.362Z,13.15
2019-05-11T19:59:11.857Z,12.96
2019-05-11T20:01:39.320Z,12.86
2019-05-11T20:04:08.267Z,12.73
2019-05-11T20:06:34.400Z,12.73
2019-05-11T20:09:01.894Z,12.82
2019-05-11T20:11:29.354Z,12.90
2019-05-11T20:13:58.828Z,12.94
2019-05-11T20:16:24.322Z,13.00
2019-05-11T20:18:51.769Z,13.01
2019-05-11T20:21:22.798Z,12.96
2019-05-11T20:23:48.507Z,12.96
2019-05-11T20:26:14.988Z,13.03
2019-05-11T20:28:42.445Z,13.06
2019-05-11T20:31:09.911Z,13.13
2019-05-11T20:33:38.490Z,13.15
2019-05-11T20:36:04.995Z,13.14
2019-05-11T20:38:32.551Z,12.95
2019-05-11T20:41:00.398Z,12.89
2019-05-11T20:43:28.131Z,12.95
2019-05-11T20:45:56.246Z,12.96
2019-05-11T20:48:23.064Z,13.01
2019-05-11T20:50:50.519Z,13.00
2019-05-11T20:53:18.307Z,13.05
2019-05-11T20:55:47.633Z,13.06
2019-05-11T20:58:13.223Z,13.01
2019-05-11T21:00:40.734Z,12.92
2019-05-11T21:03:08.296Z,12.83
2019-05-11T21:05:35.775Z,12.76
2019-05-11T21:08:03.222Z,12.67
2019-05-11T21:10:31.583Z,12.62
2019-05-11T21:12:59.048Z,12.60
2019-05-11T21:15:28.112Z,12.57
2019-05-11T21:17:54.241Z,12.52
2019-05-11T21:20:21.732Z,12.54
2019-05-11T21:22:49.215Z,12.53
2019-05-11T21:25:18.180Z,12.59
2019-05-11T21:27:44.192Z,12.58
2019-05-11T21:30:11.678Z,12.63
2019-05-11T21:32:39.206Z,12.63
2019-05-11T21:35:08.822Z,12.61
2019-05-11T21:37:34.151Z,12.62
2019-05-11T21:40:01.603Z,12.57
2019-05-11T21:42:29.075Z,12.53
2019-05-11T21:44:58.113Z,12.53
2019-05-11T21:47:24.081Z,12.54
2019-05-11T21:49:51.630Z,12.47
2019-05-11T21:52:19.118Z,12.36
2019-05-11T21:54:48.964Z,12.26
2019-05-11T21:57:14.179Z,12.32
2019-05-11T21:59:41.671Z,12.37
2019-05-11T22:02:11.091Z,12.39
2019-05-11T22:04:38.754Z,12.39
2019-05-11T22:07:04.351Z,12.40
2019-05-11T22:09:31.894Z,12.37
2019-05-11T22:11:59.357Z,12.37
2019-05-11T22:14:29.694Z,12.37
2019-05-11T22:16:54.407Z,12.36
2019-05-11T22:19:21.931Z,12.38
2019-05-11T22:21:49.639Z,12.35
2019-05-11T22:24:17.963Z,12.35
2019-05-11T22:26:44.382Z,12.36
2019-05-11T22:29:11.855Z,12.31
2019-05-11T22:31:41.891Z,12.29
2019-05-11T22:34:08.887Z,12.17
2019-05-11T22:36:34.528Z,12.14
2019-05-11T22:39:02.033Z,12.13
2019-05-11T22:41:29.555Z,12.16
2019-05-11T22:43:57.049Z,12.21
2019-05-11T22:46:24.510Z,12.24
2019-05-11T22:48:51.963Z,12.28
2019-05-11T22:51:19.511Z,12.24
2019-05-11T22:53:48.072Z,12.16
2019-05-11T22:56:14.589Z,12.13
2019-05-11T22:58:42.045Z,12.16
2019-05-11T23:01:09.537Z,12.15
2019-05-11T23:03:38.318Z,12.15
2019-05-11T23:06:04.564Z,12.11
2019-05-11T23:08:32.096Z,12.10
2019-05-11T23:10:59.591Z,12.11
2019-05-11T23:13:27.891Z,12.17
2019-05-11T23:15:54.712Z,12.18
2019-05-11T23:18:22.193Z,12.21
2019-05-11T23:20:49.717Z,12.20
2019-05-11T23:23:17.859Z,12.20
2019-05-11T23:25:44.758Z,12.19
2019-05-11T23:28:12.206Z,12.14
2019-05-11T23:30:39.739Z,12.09
2019-05-11T23:33:07.946Z,12.12
2019-05-11T23:35:34.721Z,12.09
2019-05-11T23:38:02.197Z,12.01
2019-05-11T23:40:29.687Z,11.93
2019-05-11T23:45:31.966Z,11.93
2019-05-11T23:47:59.532Z,11.95
2019-05-11T23:50:28.173Z,11.98
2019-05-11T23:53:05.950Z,12.03
2019-05-11T23:55:22.316Z,12.07
2019-05-11T23:57:50.608Z,12.05
